createdAt,value
2024-05-09T00:00:42.016Z,97307.94
2024-05-09T00:03:11.074Z,97303.88
2024-05-09T00:05:44.432Z,97298.38
2024-05-09T00:08:12.516Z,97297.91
2024-05-09T00:10:41.130Z,97296.31
2024-05-09T00:13:10.197Z,97296.66
2024-05-09T00:15:38.689Z,97296.66
2024-05-09T00:18:09.236Z,97295.03
2024-05-09T00:20:40.130Z,97291.47
2024-05-09T00:23:11.598Z,97299.72
2024-05-09T00:25:40.661Z,97284.38
2024-05-09T00:28:08.231Z,97287.13
2024-05-09T00:30:37.209Z,97285.47
2024-05-09T00:33:09.964Z,97286.63
2024-05-09T00:35:39.271Z,97285.69
2024-05-09T00:38:06.960Z,97290.84
2024-05-09T00:40:43.393Z,97289.25
2024-05-09T00:43:13.174Z,97278.22
2024-05-09T00:45:42.045Z,97284.53
2024-05-09T00:48:14.221Z,97279.03
2024-05-09T00:50:46.682Z,97285.69
2024-05-09T00:53:17.371Z,97279.03
2024-05-09T00:55:46.598Z,97281.66
2024-05-09T00:58:20.828Z,97269.84
2024-05-09T01:00:50.282Z,97274.03
2024-05-09T01:03:18.425Z,97263.38
2024-05-09T01:05:46.529Z,97260.50
2024-05-09T01:08:14.265Z,97265.53
2024-05-09T01:10:44.835Z,97268.91
2024-05-09T01:13:13.675Z,97268.44
2024-05-09T01:15:41.349Z,97268.31
2024-05-09T01:18:12.460Z,97273.81
2024-05-09T01:20:44.607Z,97269.78
2024-05-09T01:23:15.750Z,97274.00
2024-05-09T01:25:46.154Z,97275.13
2024-05-09T01:28:15.086Z,97273.53
2024-05-09T01:30:42.751Z,97278.22
2024-05-09T01:33:11.889Z,97277.41
2024-05-09T01:35:42.284Z,97272.59
2024-05-09T01:38:17.022Z,97267.38
2024-05-09T01:40:45.346Z,97274.19
2024-05-09T01:43:12.897Z,97275.00
2024-05-09T01:45:41.597Z,97270.78
2024-05-09T01:48:11.089Z,97275.94
2024-05-09T01:50:42.152Z,97279.50
2024-05-09T01:53:12.625Z,97280.63
2024-05-09T01:55:40.853Z,97273.53
2024-05-09T01:58:09.628Z,97279.81
2024-05-09T02:00:41.045Z,97276.28
2024-05-09T02:03:15.827Z,97279.34
2024-05-09T02:05:47.275Z,97278.88
2024-05-09T02:08:19.995Z,97276.47
2024-05-09T02:10:50.130Z,97282.59
2024-05-09T02:13:18.303Z,97283.41
2024-05-09T02:15:45.967Z,97284.22
2024-05-09T02:18:14.038Z,97276.31
2024-05-09T02:20:43.027Z,97285.34
2024-05-09T02:23:11.368Z,97278.25
2024-05-09T02:25:39.394Z,97283.75
2024-05-09T02:28:06.936Z,97274.38
2024-05-09T02:30:39.646Z,97272.09
2024-05-09T02:33:11.388Z,97270.97
2024-05-09T02:35:41.872Z,97270.31
2024-05-09T02:38:10.321Z,97265.59
2024-05-09T02:40:39.596Z,97270.31
2024-05-09T02:43:10.388Z,97273.84
2024-05-09T02:45:39.985Z,97268.69
2024-05-09T02:48:12.514Z,97270.31
2024-05-09T02:50:41.290Z,97269.84
2024-05-09T02:53:10.063Z,97264.34
2024-05-09T02:55:39.031Z,97269.84
2024-05-09T02:58:10.195Z,97269.66
2024-05-09T03:00:41.403Z,97270.34
2024-05-09T03:03:14.898Z,97271.13
2024-05-09T03:05:45.131Z,97267.13
2024-05-09T03:08:13.352Z,97272.16
2024-05-09T03:10:40.935Z,97270.19
2024-05-09T03:13:10.221Z,97266.31
2024-05-09T03:15:37.708Z,97266.94
2024-05-09T03:18:06.531Z,97270.50
2024-05-09T03:20:36.032Z,97270.84
2024-05-09T03:23:08.885Z,97268.41
2024-05-09T03:25:38.064Z,97275.53
2024-05-09T03:28:05.935Z,97270.84
2024-05-09T03:30:40.523Z,97269.22
2024-05-09T03:33:18.633Z,97267.63
2024-05-09T03:35:48.359Z,97271.84
2024-05-09T03:38:16.493Z,97269.41
2024-05-09T03:40:49.109Z,97274.91
2024-05-09T03:43:18.009Z,97272.81
2024-05-09T03:45:48.092Z,97272.00
2024-05-09T03:48:16.025Z,97272.81
2024-05-09T03:50:43.778Z,97276.06
2024-05-09T03:53:12.917Z,97267.47
2024-05-09T03:55:40.558Z,97276.06
2024-05-09T03:58:08.398Z,97270.88
2024-05-09T04:00:39.228Z,97276.38
2024-05-09T04:03:10.607Z,97275.09
2024-05-09T04:05:41.943Z,97284.13
2024-05-09T04:08:11.101Z,97285.28
2024-05-09T04:10:39.089Z,97286.09
2024-05-09T04:13:07.306Z,97279.13
2024-05-09T04:15:37.260Z,97284.31
2024-05-09T04:18:05.531Z,97288.34
2024-05-09T04:20:38.413Z,97292.69
2024-05-09T04:23:12.855Z,97297.84
2024-05-09T04:25:43.601Z,97297.84
2024-05-09T04:28:11.439Z,97289.59
2024-05-09T04:30:41.161Z,97303.03
2024-05-09T04:33:12.443Z,97298.34
2024-05-09T04:35:42.832Z,97302.38
2024-05-09T04:38:11.333Z,97301.25
2024-05-09T04:40:39.380Z,97300.09
2024-05-09T04:43:13.889Z,97301.72
2024-05-09T04:45:41.730Z,97303.31
2024-05-09T04:48:10.327Z,97307.81
2024-05-09T04:50:39.439Z,97309.69
2024-05-09T04:53:15.041Z,97306.88
2024-05-09T04:55:43.193Z,97301.22
2024-05-09T04:58:12.217Z,97310.06
2024-05-09T05:00:41.059Z,97314.59
2024-05-09T05:03:13.393Z,97298.72
2024-05-09T05:05:44.838Z,97304.34
2024-05-09T05:08:14.715Z,97308.06
2024-05-09T05:10:44.004Z,97312.56
2024-05-09T05:13:22.445Z,97312.97
2024-05-09T05:15:55.624Z,97316.44
2024-05-09T05:18:24.601Z,97306.56
2024-05-09T05:20:53.191Z,97308.31
2024-05-09T05:23:22.132Z,97310.53
2024-05-09T05:25:53.727Z,97314.38
2024-05-09T05:28:22.052Z,97316.13
2024-05-09T05:30:50.019Z,97310.09
2024-05-09T05:36:49.504Z,97315.22
2024-05-09T05:40:54.182Z,97314.06
2024-05-09T05:43:59.725Z,97312.88
2024-05-09T05:47:41.602Z,97306.78
2024-05-09T05:55:03.928Z,97313.47
2024-05-09T06:07:01.134Z,97311.69
2024-05-09T06:10:21.324Z,97317.78
2024-05-09T06:21:45.364Z,97327.75
2024-05-09T06:24:48.823Z,97323.44
2024-05-09T06:31:30.206Z,97316.06
2024-05-09T06:35:02.510Z,97319.28
2024-05-09T06:38:22.388Z,97324.34
2024-05-09T07:02:41.453Z,97321.41
2024-05-09T07:12:32.146Z,97319.53
2024-05-09T07:15:00.039Z,97314.94
2024-05-09T07:17:27.923Z,97313.06
2024-05-09T07:23:11.309Z,97309.91
2024-05-09T07:25:40.183Z,97317.09
2024-05-09T07:40:05.705Z,97312.75
2024-05-09T07:48:29.000Z,97311.91
2024-05-09T08:02:31.624Z,97313.28
2024-05-09T08:13:30.289Z,97307.94
2024-05-09T08:17:17.883Z,97290.25
2024-05-09T08:20:41.465Z,97308.84
2024-05-09T08:42:30.892Z,97289.56
2024-05-09T08:45:06.527Z,97293.94
2024-05-09T08:50:54.916Z,97297.06
2024-05-09T08:53:45.255Z,97296.75
2024-05-09T08:56:16.505Z,97287.19
2024-05-09T08:59:02.059Z,97286.38
2024-05-09T09:01:59.960Z,97284.41
2024-05-09T09:04:30.509Z,97279.88
2024-05-09T09:07:00.369Z,97283.09
2024-05-09T09:09:34.517Z,97289.16
2024-05-09T09:12:15.637Z,97285.97
2024-05-09T09:15:01.594Z,97277.88
2024-05-09T09:17:29.379Z,97283.44
2024-05-09T09:20:00.934Z,97276.75
2024-05-09T09:22:28.800Z,97276.69
2024-05-09T09:25:05.539Z,97286.38
2024-05-09T09:27:34.828Z,97281.38
2024-05-09T09:30:02.886Z,97279.06
2024-05-09T09:32:30.705Z,97284.72
2024-05-09T09:34:58.324Z,97289.19
2024-05-09T09:37:32.486Z,97290.34
2024-05-09T09:43:44.219Z,97284.69
2024-05-09T09:46:13.664Z,97286.28
2024-05-09T09:48:43.480Z,97279.84
2024-05-09T09:51:15.115Z,97293.91
2024-05-09T09:53:46.039Z,97290.34
2024-05-09T09:56:16.058Z,97289.19
2024-05-09T09:59:28.862Z,97288.78
2024-05-09T10:02:21.977Z,97284.78
2024-05-09T10:05:42.036Z,97293.16
2024-05-09T10:08:22.677Z,97292.66
2024-05-09T10:10:50.863Z,97291.66
2024-05-09T10:13:20.223Z,97289.94
2024-05-09T10:15:52.346Z,97285.00
2024-05-09T10:18:27.239Z,97285.56
2024-05-09T10:20:57.379Z,97282.53
2024-05-09T10:23:29.313Z,97286.78
2024-05-09T10:26:01.797Z,97283.88
2024-05-09T10:28:35.715Z,97288.66
2024-05-09T10:31:15.981Z,97275.97
2024-05-09T10:33:51.546Z,97267.50
2024-05-09T10:36:25.088Z,97269.38
2024-05-09T10:38:53.829Z,97272.06
2024-05-09T10:41:22.687Z,97277.09
2024-05-09T10:43:51.450Z,97272.03
2024-05-09T10:46:19.932Z,97276.94
2024-05-09T10:48:49.164Z,97273.78
2024-05-09T10:51:21.867Z,97277.41
2024-05-09T10:53:49.566Z,97274.75
2024-05-09T10:56:17.852Z,97270.41
2024-05-09T10:58:45.645Z,97267.63
2024-05-09T11:01:14.468Z,97271.59
2024-05-09T11:03:47.008Z,97264.03
2024-05-09T11:06:18.538Z,97271.59
2024-05-09T11:08:47.716Z,97261.22
2024-05-09T11:11:21.011Z,97261.63
2024-05-09T11:13:48.870Z,97263.63
2024-05-09T11:16:21.174Z,97265.19
2024-05-09T11:18:57.298Z,97263.19
2024-05-09T11:21:26.292Z,97258.41
2024-05-09T11:23:54.753Z,97257.63
2024-05-09T11:26:25.236Z,97257.22
2024-05-09T11:28:52.980Z,97254.44
2024-05-09T11:31:21.396Z,97251.19
2024-05-09T11:33:50.194Z,97258.41
2024-05-09T11:36:20.927Z,97250.38
2024-05-09T11:42:27.552Z,97256.69
2024-05-09T11:44:55.513Z,97251.41
2024-05-09T11:47:34.604Z,97242.72
2024-05-09T11:50:12.977Z,97242.47
2024-05-09T11:52:43.886Z,97234.91
2024-05-09T11:55:11.997Z,97233.94
2024-05-09T11:59:01.227Z,97223.75
2024-05-09T12:11:34.632Z,97222.03
2024-05-09T12:19:48.742Z,97208.13
2024-05-09T12:22:04.038Z,97204.03
2024-05-09T12:31:17.648Z,97202.50
2024-05-09T12:33:46.008Z,97202.31
2024-05-09T12:36:17.137Z,97191.13
2024-05-09T12:38:44.718Z,97180.59
2024-05-09T12:41:12.605Z,97196.81
2024-05-09T12:43:40.265Z,97194.63
2024-05-09T12:46:08.209Z,97189.94
2024-05-09T12:48:36.121Z,97186.72
2024-05-09T12:51:03.943Z,97182.59
2024-05-09T12:53:31.481Z,97178.41
2024-05-09T12:56:02.370Z,97176.97
2024-05-09T12:58:32.083Z,97175.84
2024-05-09T13:01:57.379Z,97173.47
2024-05-09T13:05:14.470Z,97172.63
2024-05-09T13:07:58.810Z,97172.16
2024-05-09T13:10:32.022Z,97161.84
2024-05-09T13:13:02.141Z,97164.28
2024-05-09T13:35:36.095Z,97138.00
2024-05-09T13:38:04.935Z,97148.28
2024-05-09T13:40:35.362Z,97136.63
2024-05-09T13:43:09.545Z,97138.88
2024-05-09T13:45:37.858Z,97127.63
2024-05-09T13:48:06.914Z,97117.88
2024-05-09T13:50:40.734Z,97120.72
2024-05-09T13:53:09.183Z,97118.44
2024-05-09T13:55:57.377Z,97121.69
2024-05-09T13:58:25.223Z,97126.31
2024-05-09T14:01:02.471Z,97114.72
2024-05-09T14:03:30.518Z,97118.72
2024-05-09T14:05:59.426Z,97118.63
2024-05-09T14:08:35.608Z,97102.66
2024-05-09T14:11:09.591Z,97109.16
2024-05-09T14:13:49.546Z,97109.44
2024-05-09T14:16:46.162Z,97098.13
2024-05-09T14:19:47.514Z,97100.53
2024-05-09T14:22:19.048Z,97101.66
2024-05-09T14:24:49.080Z,97098.50
2024-05-09T14:27:41.012Z,97096.13
2024-05-09T14:30:26.167Z,97102.13
2024-05-09T14:33:01.909Z,97087.78
2024-05-09T14:35:30.007Z,97082.75
2024-05-09T14:37:57.727Z,97077.59
2024-05-09T14:40:36.691Z,97075.44
2024-05-09T14:43:37.962Z,97077.84
2024-05-09T14:49:12.315Z,97069.44
2024-05-09T14:56:23.600Z,97071.25
2024-05-09T14:59:33.755Z,97062.75
2024-05-09T15:10:11.289Z,97067.31
2024-05-09T15:17:23.492Z,97059.63
2024-05-09T15:20:30.454Z,97056.63
2024-05-09T15:23:50.153Z,97052.47
2024-05-09T15:30:18.147Z,97056.63
2024-05-09T15:33:59.464Z,97049.41
2024-05-09T15:43:48.279Z,97047.16
2024-05-09T15:46:53.704Z,97040.63
2024-05-09T15:49:56.639Z,97043.47
2024-05-09T15:52:31.747Z,97039.91
2024-05-09T15:54:59.559Z,97040.03
2024-05-09T16:00:39.944Z,97034.16
2024-05-09T16:03:11.732Z,97029.16
2024-05-09T16:06:23.293Z,97033.38
2024-05-09T16:11:58.652Z,97025.44
2024-05-09T16:18:28.199Z,97026.22
2024-05-09T16:21:01.784Z,97021.97
2024-05-09T16:24:03.012Z,97017.03
2024-05-09T16:26:34.649Z,97017.38
2024-05-09T16:29:56.815Z,97016.47
2024-05-09T16:32:47.389Z,97017.06
2024-05-09T16:35:21.232Z,97017.94
2024-05-09T16:37:49.255Z,97019.66
2024-05-09T16:40:25.499Z,97018.66
2024-05-09T16:43:04.858Z,97007.22
2024-05-09T16:45:33.729Z,97012.69
2024-05-09T16:48:02.537Z,97020.38
2024-05-09T16:50:34.381Z,97018.06
2024-05-09T16:53:04.988Z,97012.66
2024-05-09T16:55:33.538Z,96999.56
2024-05-09T16:58:51.734Z,97011.34
2024-05-09T17:01:20.676Z,97003.88
2024-05-09T17:03:49.428Z,97004.75
2024-05-09T17:06:17.252Z,97008.00
2024-05-09T17:08:44.971Z,97010.03
2024-05-09T17:11:13.580Z,97006.88
2024-05-09T17:13:44.066Z,97002.09
2024-05-09T17:16:18.126Z,97002.91
2024-05-09T17:22:32.263Z,97000.66
2024-05-09T17:24:59.926Z,97000.66
2024-05-09T17:27:55.910Z,97002.69
2024-05-09T17:34:13.828Z,97004.94
2024-05-09T17:37:04.695Z,97012.94
2024-05-09T17:39:56.095Z,97008.63
2024-05-09T17:42:23.738Z,97012.28
2024-05-09T17:45:36.022Z,97008.72
2024-05-09T17:48:28.833Z,97012.91
2024-05-09T17:51:44.119Z,97015.69
2024-05-09T17:54:11.619Z,97018.91
2024-05-09T17:57:14.608Z,97017.22
2024-05-09T17:59:42.262Z,97021.13
2024-05-09T18:02:09.984Z,97022.63
2024-05-09T18:04:38.132Z,97019.72
2024-05-09T18:07:05.960Z,97021.13
2024-05-09T18:09:34.212Z,97023.78
2024-05-09T18:12:01.973Z,97024.44
2024-05-09T18:14:29.588Z,97020.69
2024-05-09T18:16:57.332Z,97027.28
2024-05-09T18:19:25.128Z,97022.69
2024-05-09T18:21:53.524Z,97026.47
2024-05-09T18:24:22.238Z,97023.88
2024-05-09T18:26:50.430Z,97027.59
2024-05-09T18:29:21.706Z,97025.78
2024-05-09T18:31:49.660Z,97025.88
2024-05-09T18:34:17.392Z,97032.78
2024-05-09T18:36:45.426Z,97026.56
2024-05-09T18:39:13.776Z,97027.50
2024-05-09T18:41:41.354Z,97027.19
2024-05-09T18:44:09.222Z,97022.50
2024-05-09T18:46:36.814Z,97024.16
2024-05-09T18:49:04.482Z,97027.41
2024-05-09T18:51:32.123Z,97030.63
2024-05-09T18:53:59.670Z,97028.28
2024-05-09T18:56:27.135Z,97024.09
2024-05-09T18:58:54.712Z,97034.50
2024-05-09T19:01:22.229Z,97032.59
2024-05-09T19:03:50.617Z,97044.94
2024-05-09T19:06:21.064Z,97042.28
2024-05-09T19:08:50.425Z,97047.47
2024-05-09T19:11:17.910Z,97051.56
2024-05-09T19:13:45.360Z,97050.50
2024-05-09T19:16:12.865Z,97055.34
2024-05-09T19:18:42.122Z,97059.34
2024-05-09T19:21:09.684Z,97068.16
2024-05-09T19:23:38.534Z,97069.03
2024-05-09T19:26:11.723Z,97074.28
2024-05-09T19:28:40.522Z,97072.72
2024-05-09T19:31:07.994Z,97074.03
2024-05-09T19:33:36.960Z,97069.78
2024-05-09T19:36:05.545Z,97069.94
2024-05-09T19:38:33.202Z,97075.88
2024-05-09T19:41:00.818Z,97081.38
2024-05-09T19:43:29.657Z,97081.53
2024-05-09T19:45:58.172Z,97084.88
2024-05-09T19:48:26.048Z,97083.88
2024-05-09T19:50:53.854Z,97089.50
2024-05-09T19:53:21.400Z,97090.41
2024-05-09T19:55:48.850Z,97092.63
2024-05-09T19:58:16.836Z,97093.19
2024-05-09T20:00:44.982Z,97090.53
2024-05-09T20:03:14.328Z,97095.47
2024-05-09T20:05:47.155Z,97094.47
2024-05-09T20:08:15.247Z,97102.13
2024-05-09T20:10:59.430Z,97101.44
2024-05-09T20:13:27.163Z,97099.53
2024-05-09T20:15:54.873Z,97098.84
2024-05-09T20:18:22.516Z,97102.53
2024-05-09T20:20:53.365Z,97107.31
2024-05-09T20:23:22.354Z,97102.09
2024-05-09T20:25:49.905Z,97102.16
2024-05-09T20:28:17.951Z,97102.41
2024-05-09T20:30:45.404Z,97096.75
2024-05-09T20:33:14.426Z,97102.59
2024-05-09T20:35:42.039Z,97104.09
2024-05-09T20:38:09.791Z,97103.97
2024-05-09T20:40:39.208Z,97106.78
2024-05-09T20:43:11.096Z,97098.59
2024-05-09T20:45:39.508Z,97100.63
2024-05-09T20:48:08.445Z,97105.38
2024-05-09T20:50:40.088Z,97097.00
2024-05-09T20:53:14.288Z,97103.09
2024-05-09T20:55:43.947Z,97102.63
2024-05-09T20:58:13.108Z,97099.06
2024-05-09T21:00:44.381Z,97106.50
2024-05-09T21:03:16.595Z,97099.97
2024-05-09T21:05:45.877Z,97099.84
2024-05-09T21:08:13.904Z,97094.88
2024-05-09T21:10:41.589Z,97092.13
2024-05-09T21:13:09.361Z,97096.53
2024-05-09T21:15:37.208Z,97089.63
2024-05-09T21:18:05.298Z,97092.25
2024-05-09T21:20:34.914Z,97087.41
2024-05-09T21:23:03.419Z,97088.41
2024-05-09T21:25:31.534Z,97088.63
2024-05-09T21:27:59.135Z,97087.66
2024-05-09T21:30:33.092Z,97080.09
2024-05-09T21:33:10.369Z,97078.47
2024-05-09T21:35:40.293Z,97082.34
2024-05-09T21:38:08.133Z,97081.88
2024-05-09T21:40:37.208Z,97084.47
2024-05-09T21:43:08.932Z,97084.31
2024-05-09T21:45:37.418Z,97084.50
2024-05-09T21:48:06.242Z,97078.38
2024-05-09T21:50:40.245Z,97082.13
2024-05-09T21:53:13.446Z,97075.19
2024-05-09T21:55:42.754Z,97068.28
2024-05-09T21:58:11.675Z,97077.47
2024-05-09T22:00:40.752Z,97074.91
2024-05-09T22:03:10.750Z,97071.53
2024-05-09T22:05:42.246Z,97078.63
2024-05-09T22:08:10.634Z,97073.00
2024-05-09T22:10:38.668Z,97069.78
2024-05-09T22:13:07.184Z,97066.06
2024-05-09T22:15:37.828Z,97069.94
2024-05-09T22:18:08.307Z,97073.34
2024-05-09T22:20:39.203Z,97071.88
2024-05-09T22:23:08.686Z,97074.81
2024-05-09T22:25:38.519Z,97068.66
2024-05-09T22:28:06.822Z,97068.03
2024-05-09T22:30:38.232Z,97070.94
2024-05-09T22:33:12.130Z,97070.78
2024-05-09T22:35:41.130Z,97075.28
2024-05-09T22:38:09.082Z,97069.16
2024-05-09T22:40:46.269Z,97080.75
2024-05-09T22:43:23.114Z,97082.19
2024-05-09T22:45:54.255Z,97080.59
2024-05-09T22:48:23.374Z,97080.09
2024-05-09T22:50:51.281Z,97084.28
2024-05-09T22:53:19.055Z,97077.53
2024-05-09T22:55:46.535Z,97080.38
2024-05-09T22:58:14.075Z,97075.06
2024-05-09T23:00:42.269Z,97077.28
2024-05-09T23:03:09.832Z,97076.34
2024-05-09T23:05:37.475Z,97072.31
2024-05-09T23:08:05.406Z,97076.47
2024-05-09T23:10:36.677Z,97070.34
2024-05-09T23:13:09.310Z,97065.34
2024-05-09T23:15:38.754Z,97057.28
2024-05-09T23:18:07.175Z,97060.16
2024-05-09T23:20:38.742Z,97061.59
2024-05-09T23:23:11.978Z,97070.13
2024-05-09T23:25:41.797Z,97058.50
2024-05-09T23:28:10.182Z,97065.75
2024-05-09T23:30:40.592Z,97063.97
2024-05-09T23:33:12.200Z,97055.25
2024-05-09T23:35:44.153Z,97066.03
2024-05-09T23:38:12.492Z,97057.16
2024-05-09T23:40:41.884Z,97061.34
2024-05-09T23:43:11.734Z,97060.06
2024-05-09T23:45:40.519Z,97063.41
2024-05-09T23:48:08.787Z,97060.97
2024-05-09T23:50:38.748Z,97049.56
2024-05-09T23:53:09.051Z,97056.47
2024-05-09T23:55:37.919Z,97050.47
2024-05-09T23:58:06.395Z,97046.78
